sensor_id;sensor_type;location;lat;lon;timestamp;pressure;altitude;pressure_sealevel;temperature;humidity
82416;BME280;72058;47.782;10.618;2023-09-19T00:00:42;93262.06;;;15.92;69.60
82416;BME280;72058;47.782;10.618;2023-09-19T00:03:09;93264.69;;;15.69;70.64
82416;BME280;72058;47.782;10.618;2023-09-19T00:05:35;93265.03;;;15.68;70.72
82416;BME280;72058;47.782;10.618;2023-09-19T00:08:02;93265.75;;;15.65;70.50
82416;BME280;72058;47.782;10.618;2023-09-19T00:10:32;93275.28;;;15.71;70.45
82416;BME280;72058;47.782;10.618;2023-09-19T00:13:00;93274.84;;;15.69;70.16
82416;BME280;72058;47.782;10.618;2023-09-19T00:15:31;93282.88;;;15.77;69.38
82416;BME280;72058;47.782;10.618;2023-09-19T00:17:58;93284.94;;;15.80;69.21
82416;BME280;72058;47.782;10.618;2023-09-19T00:20:24;93286.88;;;15.80;69.61
82416;BME280;72058;47.782;10.618;2023-09-19T00:22:50;93286.94;;;15.83;69.12
82416;BME280;72058;47.782;10.618;2023-09-19T00:25:19;93289.44;;;15.88;69.38
82416;BME280;72058;47.782;10.618;2023-09-19T00:27:45;93286.59;;;15.85;68.69
82416;BME280;72058;47.782;10.618;2023-09-19T00:30:13;93292.53;;;15.87;68.53
82416;BME280;72058;47.782;10.618;2023-09-19T00:32:46;93292.44;;;15.83;68.76
82416;BME280;72058;47.782;10.618;2023-09-19T00:35:13;93295.25;;;15.87;69.04
82416;BME280;72058;47.782;10.618;2023-09-19T00:37:40;93298.00;;;15.87;68.79
82416;BME280;72058;47.782;10.618;2023-09-19T00:40:07;93291.72;;;15.86;69.15
82416;BME280;72058;47.782;10.618;2023-09-19T00:42:37;93287.38;;;15.85;69.56
82416;BME280;72058;47.782;10.618;2023-09-19T00:45:03;93298.81;;;15.87;68.71
82416;BME280;72058;47.782;10.618;2023-09-19T00:50:30;93301.34;;;15.96;68.21
82416;BME280;72058;47.782;10.618;2023-09-19T00:52:58;93293.19;;;16.00;67.85
82416;BME280;72058;47.782;10.618;2023-09-19T00:55:25;93303.31;;;15.96;67.90
82416;BME280;72058;47.782;10.618;2023-09-19T00:57:50;93304.09;;;15.96;67.55
82416;BME280;72058;47.782;10.618;2023-09-19T01:00:16;93296.81;;;16.04;67.45
82416;BME280;72058;47.782;10.618;2023-09-19T01:02:45;93298.41;;;16.05;67.25
82416;BME280;72058;47.782;10.618;2023-09-19T01:05:12;93302.56;;;16.14;66.89
82416;BME280;72058;47.782;10.618;2023-09-19T01:07:37;93298.63;;;16.15;66.50
82416;BME280;72058;47.782;10.618;2023-09-19T01:10:07;93309.34;;;16.20;66.67
82416;BME280;72058;47.782;10.618;2023-09-19T01:18:35;93312.06;;;16.55;64.95
82416;BME280;72058;47.782;10.618;2023-09-19T01:24:07;93318.34;;;16.56;65.21
82416;BME280;72058;47.782;10.618;2023-09-19T01:29:42;93307.09;;;16.61;65.79
82416;BME280;72058;47.782;10.618;2023-09-19T01:32:10;93311.47;;;16.65;65.98
82416;BME280;72058;47.782;10.618;2023-09-19T01:37:14;93317.72;;;16.82;66.46
82416;BME280;72058;47.782;10.618;2023-09-19T01:39:45;93320.81;;;16.80;66.79
82416;BME280;72058;47.782;10.618;2023-09-19T01:42:35;93316.13;;;16.81;67.38
82416;BME280;72058;47.782;10.618;2023-09-19T01:48:05;93325.44;;;16.76;68.01
82416;BME280;72058;47.782;10.618;2023-09-19T01:53:13;93318.88;;;16.61;69.00
82416;BME280;72058;47.782;10.618;2023-09-19T01:55:47;93317.19;;;16.57;68.84
82416;BME280;72058;47.782;10.618;2023-09-19T01:58:41;93325.84;;;16.59;69.06
82416;BME280;72058;47.782;10.618;2023-09-19T02:01:12;93321.50;;;16.58;69.12
82416;BME280;72058;47.782;10.618;2023-09-19T02:03:40;93318.41;;;16.59;68.55
82416;BME280;72058;47.782;10.618;2023-09-19T02:06:07;93317.19;;;16.57;68.62
82416;BME280;72058;47.782;10.618;2023-09-19T02:08:37;93321.16;;;16.59;68.21
82416;BME280;72058;47.782;10.618;2023-09-19T02:11:02;93321.41;;;16.70;68.07
82416;BME280;72058;47.782;10.618;2023-09-19T02:13:28;93323.78;;;16.72;67.89
82416;BME280;72058;47.782;10.618;2023-09-19T02:15:54;93321.84;;;16.72;67.27
82416;BME280;72058;47.782;10.618;2023-09-19T02:18:19;93321.25;;;16.82;67.10
82416;BME280;72058;47.782;10.618;2023-09-19T02:20:45;93326.69;;;16.79;67.28
82416;BME280;72058;47.782;10.618;2023-09-19T02:23:12;93329.47;;;16.82;66.59
82416;BME280;72058;47.782;10.618;2023-09-19T02:25:38;93337.53;;;16.72;66.98
82416;BME280;72058;47.782;10.618;2023-09-19T02:28:05;93333.31;;;16.78;66.71
82416;BME280;72058;47.782;10.618;2023-09-19T02:30:31;93339.13;;;16.73;66.63
82416;BME280;72058;47.782;10.618;2023-09-19T02:32:57;93336.94;;;16.62;66.87
82416;BME280;72058;47.782;10.618;2023-09-19T02:35:22;93343.13;;;16.59;67.01
82416;BME280;72058;47.782;10.618;2023-09-19T02:37:48;93345.97;;;16.63;66.50
82416;BME280;72058;47.782;10.618;2023-09-19T02:40:14;93340.06;;;16.61;65.92
82416;BME280;72058;47.782;10.618;2023-09-19T02:42:54;93344.19;;;16.71;66.19
82416;BME280;72058;47.782;10.618;2023-09-19T02:45:20;93345.34;;;16.69;65.35
82416;BME280;72058;47.782;10.618;2023-09-19T02:47:46;93342.94;;;16.68;65.39
82416;BME280;72058;47.782;10.618;2023-09-19T02:50:12;93347.38;;;16.73;65.39
82416;BME280;72058;47.782;10.618;2023-09-19T02:52:38;93344.22;;;16.74;65.04
82416;BME280;72058;47.782;10.618;2023-09-19T02:55:06;93348.56;;;16.75;64.97
82416;BME280;72058;47.782;10.618;2023-09-19T02:57:34;93358.63;;;16.67;65.25
82416;BME280;72058;47.782;10.618;2023-09-19T03:00:00;93348.56;;;16.75;64.54
82416;BME280;72058;47.782;10.618;2023-09-19T03:02:26;93345.63;;;16.64;64.92
82416;BME280;72058;47.782;10.618;2023-09-19T03:04:53;93354.72;;;16.68;65.03
82416;BME280;72058;47.782;10.618;2023-09-19T03:07:19;93357.47;;;16.68;64.67
82416;BME280;72058;47.782;10.618;2023-09-19T03:09:44;93364.56;;;16.69;64.68
82416;BME280;72058;47.782;10.618;2023-09-19T03:12:10;93361.47;;;16.71;65.08
82416;BME280;72058;47.782;10.618;2023-09-19T03:14:36;93359.38;;;16.64;65.09
82416;BME280;72058;47.782;10.618;2023-09-19T03:17:01;93377.06;;;16.67;64.80
82416;BME280;72058;47.782;10.618;2023-09-19T03:19:30;93372.44;;;16.71;64.55
82416;BME280;72058;47.782;10.618;2023-09-19T03:21:56;93372.59;;;16.78;64.25
82416;BME280;72058;47.782;10.618;2023-09-19T03:24:22;93372.09;;;16.73;64.37
82416;BME280;72058;47.782;10.618;2023-09-19T03:26:48;93362.03;;;16.80;64.12
82416;BME280;72058;47.782;10.618;2023-09-19T03:29:14;93365.50;;;16.77;64.15
82416;BME280;72058;47.782;10.618;2023-09-19T03:31:41;93361.47;;;16.71;64.73
82416;BME280;72058;47.782;10.618;2023-09-19T03:34:06;93356.75;;;16.72;64.56
82416;BME280;72058;47.782;10.618;2023-09-19T03:36:35;93359.41;;;16.68;64.62
82416;BME280;72058;47.782;10.618;2023-09-19T03:39:01;93358.97;;;16.66;64.72
82416;BME280;72058;47.782;10.618;2023-09-19T03:41:30;93366.50;;;16.69;64.66
82416;BME280;72058;47.782;10.618;2023-09-19T03:43:56;93373.59;;;16.70;64.89
82416;BME280;72058;47.782;10.618;2023-09-19T03:46:21;93375.91;;;16.68;64.85
82416;BME280;72058;47.782;10.618;2023-09-19T03:48:47;93370.34;;;16.64;65.21
82416;BME280;72058;47.782;10.618;2023-09-19T03:51:12;93368.63;;;16.60;65.52
82416;BME280;72058;47.782;10.618;2023-09-19T03:53:37;93371.84;;;16.62;65.45
82416;BME280;72058;47.782;10.618;2023-09-19T03:56:03;93368.91;;;16.71;65.24
82416;BME280;72058;47.782;10.618;2023-09-19T03:58:28;93367.31;;;16.69;65.08
82416;BME280;72058;47.782;10.618;2023-09-19T04:00:57;93362.16;;;16.68;65.02
82416;BME280;72058;47.782;10.618;2023-09-19T04:03:23;93365.00;;;16.72;65.34
82416;BME280;72058;47.782;10.618;2023-09-19T04:05:50;93360.72;;;16.74;65.22
82416;BME280;72058;47.782;10.618;2023-09-19T04:08:15;93356.22;;;16.66;65.47
82416;BME280;72058;47.782;10.618;2023-09-19T04:10:44;93358.91;;;16.62;65.52
82416;BME280;72058;47.782;10.618;2023-09-19T04:13:10;93359.72;;;16.63;65.25
82416;BME280;72058;47.782;10.618;2023-09-19T04:15:36;93367.50;;;16.61;65.34
82416;BME280;72058;47.782;10.618;2023-09-19T04:18:02;93363.25;;;16.63;65.44
82416;BME280;72058;47.782;10.618;2023-09-19T04:20:28;93368.09;;;16.70;65.30
82416;BME280;72058;47.782;10.618;2023-09-19T04:22:54;93372.00;;;16.69;65.10
82416;BME280;72058;47.782;10.618;2023-09-19T04:25:19;93378.66;;;16.68;65.52
82416;BME280;72058;47.782;10.618;2023-09-19T04:27:45;93381.41;;;16.68;65.54
82416;BME280;72058;47.782;10.618;2023-09-19T04:30:11;93375.03;;;16.64;65.74
82416;BME280;72058;47.782;10.618;2023-09-19T04:32:38;93380.91;;;16.62;65.60
82416;BME280;72058;47.782;10.618;2023-09-19T04:35:08;93376.72;;;16.53;66.01
82416;BME280;72058;47.782;10.618;2023-09-19T04:37:37;93378.31;;;16.54;65.91
82416;BME280;72058;47.782;10.618;2023-09-19T04:40:04;93380.38;;;16.57;65.56
82416;BME280;72058;47.782;10.618;2023-09-19T04:42:31;93380.38;;;16.57;65.94
82416;BME280;72058;47.782;10.618;2023-09-19T04:44:56;93380.38;;;16.57;65.74
82416;BME280;72058;47.782;10.618;2023-09-19T04:47:22;93382.66;;;16.55;65.54
82416;BME280;72058;47.782;10.618;2023-09-19T04:49:47;93385.06;;;16.56;65.59
82416;BME280;72058;47.782;10.618;2023-09-19T04:52:13;93388.22;;;16.58;65.68
82416;BME280;72058;47.782;10.618;2023-09-19T04:54:40;93386.13;;;16.52;66.26
82416;BME280;72058;47.782;10.618;2023-09-19T04:57:06;93384.53;;;16.51;65.91
82416;BME280;72058;47.782;10.618;2023-09-19T04:59:32;93390.38;;;16.49;66.23
82416;BME280;72058;47.782;10.618;2023-09-19T05:01:58;93384.97;;;16.53;66.02
82416;BME280;72058;47.782;10.618;2023-09-19T05:04:24;93389.31;;;16.54;66.07
82416;BME280;72058;47.782;10.618;2023-09-19T05:06:49;93390.75;;;16.48;66.06
82416;BME280;72058;47.782;10.618;2023-09-19T05:09:14;93384.25;;;16.56;66.14
82416;BME280;72058;47.782;10.618;2023-09-19T05:11:40;93390.91;;;16.55;66.22
82416;BME280;72058;47.782;10.618;2023-09-19T05:14:06;93393.56;;;16.51;66.39
82416;BME280;72058;47.782;10.618;2023-09-19T05:16:34;93394.09;;;16.41;66.48
82416;BME280;72058;47.782;10.618;2023-09-19T05:19:01;93392.50;;;16.56;65.95
82416;BME280;72058;47.782;10.618;2023-09-19T05:21:26;93401.44;;;16.53;65.99
82416;BME280;72058;47.782;10.618;2023-09-19T05:23:55;93410.03;;;16.51;66.45
82416;BME280;72058;47.782;10.618;2023-09-19T05:26:21;93406.03;;;16.49;66.19
82416;BME280;72058;47.782;10.618;2023-09-19T05:28:46;93403.75;;;16.51;66.30
82416;BME280;72058;47.782;10.618;2023-09-19T05:31:13;93400.75;;;16.56;65.94
82416;BME280;72058;47.782;10.618;2023-09-19T05:33:39;93413.31;;;16.57;66.34
82416;BME280;72058;47.782;10.618;2023-09-19T05:36:05;93413.72;;;16.59;66.25
82416;BME280;72058;47.782;10.618;2023-09-19T05:38:30;93427.06;;;16.57;66.40
82416;BME280;72058;47.782;10.618;2023-09-19T05:40:56;93417.91;;;16.68;65.94
82416;BME280;72058;47.782;10.618;2023-09-19T05:43:21;93426.75;;;16.78;65.42
82416;BME280;72058;47.782;10.618;2023-09-19T05:45:47;93426.38;;;16.79;65.65
82416;BME280;72058;47.782;10.618;2023-09-19T05:48:14;93430.63;;;16.77;65.60
82416;BME280;72058;47.782;10.618;2023-09-19T05:50:41;93430.19;;;16.75;65.91
82416;BME280;72058;47.782;10.618;2023-09-19T05:53:07;93430.03;;;16.67;66.48
82416;BME280;72058;47.782;10.618;2023-09-19T05:55:33;93437.44;;;16.63;66.35
82416;BME280;72058;47.782;10.618;2023-09-19T05:57:58;93435.19;;;16.69;66.71
82416;BME280;72058;47.782;10.618;2023-09-19T06:00:24;93439.88;;;16.68;66.66
82416;BME280;72058;47.782;10.618;2023-09-19T06:02:51;93436.19;;;16.61;66.74
82416;BME280;72058;47.782;10.618;2023-09-19T06:05:17;93438.56;;;16.62;66.68
82416;BME280;72058;47.782;10.618;2023-09-19T06:07:42;93443.13;;;16.74;66.27
82416;BME280;72058;47.782;10.618;2023-09-19T06:10:08;93445.66;;;16.63;66.79
82416;BME280;72058;47.782;10.618;2023-09-19T06:12:44;93445.53;;;16.60;66.99
82416;BME280;72058;47.782;10.618;2023-09-19T06:15:10;93443.72;;;16.64;66.58
82416;BME280;72058;47.782;10.618;2023-09-19T06:17:50;93443.44;;;16.69;66.39
82416;BME280;72058;47.782;10.618;2023-09-19T06:20:16;93449.16;;;16.80;65.47
82416;BME280;72058;47.782;10.618;2023-09-19T06:22:42;93446.63;;;16.71;65.79
82416;BME280;72058;47.782;10.618;2023-09-19T06:25:12;93455.00;;;16.78;65.72
82416;BME280;72058;47.782;10.618;2023-09-19T06:27:40;93455.47;;;16.80;65.75
82416;BME280;72058;47.782;10.618;2023-09-19T06:30:10;93462.53;;;16.81;65.72
82416;BME280;72058;47.782;10.618;2023-09-19T06:32:37;93471.22;;;16.83;65.44
82416;BME280;72058;47.782;10.618;2023-09-19T06:35:02;93471.94;;;16.80;65.68
82416;BME280;72058;47.782;10.618;2023-09-19T06:37:28;93473.59;;;16.85;65.53
82416;BME280;72058;47.782;10.618;2023-09-19T06:39:54;93466.16;;;16.85;65.61
82416;BME280;72058;47.782;10.618;2023-09-19T06:42:19;93472.88;;;16.88;66.00
82416;BME280;72058;47.782;10.618;2023-09-19T06:44:44;93477.28;;;16.92;65.83
82416;BME280;72058;47.782;10.618;2023-09-19T06:47:10;93486.00;;;16.94;65.64
82416;BME280;72058;47.782;10.618;2023-09-19T06:49:36;93482.69;;;17.04;65.28
82416;BME280;72058;47.782;10.618;2023-09-19T06:52:01;93475.59;;;17.03;65.37
82416;BME280;72058;47.782;10.618;2023-09-19T06:54:27;93481.94;;;17.07;65.30
82416;BME280;72058;47.782;10.618;2023-09-19T06:56:56;93483.78;;;17.19;64.47
82416;BME280;72058;47.782;10.618;2023-09-19T06:59:23;93484.06;;;17.14;64.34
82416;BME280;72058;47.782;10.618;2023-09-19T07:01:49;93484.88;;;17.15;64.50
82416;BME280;72058;47.782;10.618;2023-09-19T07:04:15;93491.56;;;17.17;64.33
82416;BME280;72058;47.782;10.618;2023-09-19T07:06:42;93488.91;;;17.21;64.19
82416;BME280;72058;47.782;10.618;2023-09-19T07:09:08;93493.41;;;17.29;64.23
82416;BME280;72058;47.782;10.618;2023-09-19T07:11:34;93488.34;;;17.31;63.65
82416;BME280;72058;47.782;10.618;2023-09-19T07:13:59;93493.25;;;17.41;63.31
82416;BME280;72058;47.782;10.618;2023-09-19T07:16:24;93498.03;;;17.44;63.70
82416;BME280;72058;47.782;10.618;2023-09-19T07:18:55;93503.53;;;17.44;63.25
82416;BME280;72058;47.782;10.618;2023-09-19T07:21:22;93503.47;;;17.40;63.48
82416;BME280;72058;47.782;10.618;2023-09-19T07:23:47;93508.72;;;17.49;63.30
82416;BME280;72058;47.782;10.618;2023-09-19T07:26:13;93501.81;;;17.55;62.98
82416;BME280;72058;47.782;10.618;2023-09-19T07:28:39;93501.19;;;17.62;63.15
82416;BME280;72058;47.782;10.618;2023-09-19T07:31:05;93498.13;;;17.67;63.51
82416;BME280;72058;47.782;10.618;2023-09-19T07:33:32;93508.41;;;17.70;63.17
82416;BME280;72058;47.782;10.618;2023-09-19T07:35:57;93512.97;;;17.81;62.73
82416;BME280;72058;47.782;10.618;2023-09-19T07:38:23;93504.88;;;17.92;62.59
82416;BME280;72058;47.782;10.618;2023-09-19T07:40:50;93510.13;;;17.97;62.35
82416;BME280;72058;47.782;10.618;2023-09-19T07:43:15;93509.44;;;18.04;61.94
82416;BME280;72058;47.782;10.618;2023-09-19T07:45:40;93511.25;;;18.15;60.92
82416;BME280;72058;47.782;10.618;2023-09-19T07:48:07;93512.75;;;18.13;61.01
82416;BME280;72058;47.782;10.618;2023-09-19T07:50:39;93517.91;;;18.14;61.04
82416;BME280;72058;47.782;10.618;2023-09-19T07:53:05;93523.06;;;18.16;60.87
82416;BME280;72058;47.782;10.618;2023-09-19T07:55:30;93524.56;;;18.13;60.32
82416;BME280;72058;47.782;10.618;2023-09-19T07:57:56;93521.69;;;18.06;60.52
82416;BME280;72058;47.782;10.618;2023-09-19T08:00:21;93523.28;;;18.07;60.69
82416;BME280;72058;47.782;10.618;2023-09-19T08:02:47;93533.06;;;18.05;61.07
82416;BME280;72058;47.782;10.618;2023-09-19T08:05:13;93519.56;;;18.00;61.42
82416;BME280;72058;47.782;10.618;2023-09-19T08:07:42;93515.25;;;17.99;61.35
82416;BME280;72058;47.782;10.618;2023-09-19T08:10:09;93511.28;;;17.96;61.24
82416;BME280;72058;47.782;10.618;2023-09-19T08:12:41;93523.09;;;17.97;61.76
82416;BME280;72058;47.782;10.618;2023-09-19T08:17:38;93521.53;;;17.99;60.87
82416;BME280;72058;47.782;10.618;2023-09-19T08:20:04;93524.69;;;17.98;61.01
82416;BME280;72058;47.782;10.618;2023-09-19T08:22:30;93532.53;;;17.99;61.17
82416;BME280;72058;47.782;10.618;2023-09-19T08:24:57;93533.88;;;18.05;61.50
82416;BME280;72058;47.782;10.618;2023-09-19T08:27:23;93533.91;;;18.09;61.90
82416;BME280;72058;47.782;10.618;2023-09-19T08:29:52;93535.63;;;18.17;61.40
82416;BME280;72058;47.782;10.618;2023-09-19T08:32:17;93535.00;;;18.24;61.28
82416;BME280;72058;47.782;10.618;2023-09-19T08:34:45;93537.88;;;18.31;60.37
82416;BME280;72058;47.782;10.618;2023-09-19T08:37:10;93538.34;;;18.36;60.87
82416;BME280;72058;47.782;10.618;2023-09-19T08:39:35;93543.53;;;18.41;60.62
82416;BME280;72058;47.782;10.618;2023-09-19T08:42:02;93547.88;;;18.42;59.71
82416;BME280;72058;47.782;10.618;2023-09-19T08:44:28;93558.19;;;18.45;59.73
82416;BME280;72058;47.782;10.618;2023-09-19T08:47:27;93556.03;;;18.35;59.93
82416;BME280;72058;47.782;10.618;2023-09-19T08:50:13;93552.00;;;18.29;59.86
82416;BME280;72058;47.782;10.618;2023-09-19T08:52:43;93553.88;;;18.25;60.12
82416;BME280;72058;47.782;10.618;2023-09-19T08:55:13;93549.97;;;18.26;59.91
82416;BME280;72058;47.782;10.618;2023-09-19T08:57:45;93556.28;;;18.27;59.89
82416;BME280;72058;47.782;10.618;2023-09-19T09:00:15;93559.59;;;18.36;59.95
82416;BME280;72058;47.782;10.618;2023-09-19T09:02:43;93561.25;;;18.40;59.80
82416;BME280;72058;47.782;10.618;2023-09-19T09:05:09;93554.72;;;18.48;59.21
82416;BME280;72058;47.782;10.618;2023-09-19T09:07:40;93555.50;;;18.49;58.92
82416;BME280;72058;47.782;10.618;2023-09-19T09:10:06;93544.03;;;18.47;58.03
82416;BME280;72058;47.782;10.618;2023-09-19T09:12:32;93546.03;;;18.50;58.70
82416;BME280;72058;47.782;10.618;2023-09-19T09:14:59;93546.81;;;18.47;58.61
82416;BME280;72058;47.782;10.618;2023-09-19T09:17:25;93550.19;;;18.60;59.43
82416;BME280;72058;47.782;10.618;2023-09-19T09:19:54;93549.66;;;18.73;59.24
82416;BME280;72058;47.782;10.618;2023-09-19T09:22:19;93553.59;;;18.76;58.67
82416;BME280;72058;47.782;10.618;2023-09-19T09:24:56;93556.00;;;18.77;58.13
82416;BME280;72058;47.782;10.618;2023-09-19T09:27:26;93554.09;;;18.81;57.96
82416;BME280;72058;47.782;10.618;2023-09-19T09:29:52;93556.84;;;18.81;58.22
82416;BME280;72058;47.782;10.618;2023-09-19T09:34:54;93547.44;;;18.82;57.21
82416;BME280;72058;47.782;10.618;2023-09-19T09:37:20;93555.75;;;18.86;57.18
82416;BME280;72058;47.782;10.618;2023-09-19T09:39:58;93552.34;;;18.96;57.86
82416;BME280;72058;47.782;10.618;2023-09-19T09:42:36;93560.31;;;19.01;57.28
82416;BME280;72058;47.782;10.618;2023-09-19T09:45:24;93557.28;;;19.10;56.87
82416;BME280;72058;47.782;10.618;2023-09-19T09:47:59;93553.09;;;19.19;56.69
82416;BME280;72058;47.782;10.618;2023-09-19T09:50:30;93556.72;;;19.23;56.97
82416;BME280;72058;47.782;10.618;2023-09-19T09:56:05;93563.75;;;19.21;55.10
82416;BME280;72058;47.782;10.618;2023-09-19T09:58:55;93557.81;;;19.19;55.11
82416;BME280;72058;47.782;10.618;2023-09-19T10:01:24;93561.75;;;19.18;54.55
82416;BME280;72058;47.782;10.618;2023-09-19T10:03:57;93558.09;;;19.10;54.90
82416;BME280;72058;47.782;10.618;2023-09-19T10:06:22;93559.69;;;19.11;54.95
82416;BME280;72058;47.782;10.618;2023-09-19T10:09:08;93568.41;;;19.17;54.46
82416;BME280;72058;47.782;10.618;2023-09-19T10:11:47;93567.59;;;19.13;53.91
82416;BME280;72058;47.782;10.618;2023-09-19T10:14:20;93559.69;;;19.11;53.96
82416;BME280;72058;47.782;10.618;2023-09-19T10:16:49;93563.69;;;19.17;54.16
82416;BME280;72058;47.782;10.618;2023-09-19T10:19:51;93560.94;;;19.17;54.82
82416;BME280;72058;47.782;10.618;2023-09-19T10:22:12;93559.47;;;19.23;54.78
82416;BME280;72058;47.782;10.618;2023-09-19T10:24:46;93557.50;;;19.24;54.63
82416;BME280;72058;47.782;10.618;2023-09-19T10:27:12;93551.59;;;19.25;54.91
82416;BME280;72058;47.782;10.618;2023-09-19T10:29:39;93562.63;;;19.25;54.58
82416;BME280;72058;47.782;10.618;2023-09-19T10:32:05;93566.19;;;19.26;54.12
82416;BME280;72058;47.782;10.618;2023-09-19T10:34:35;93565.78;;;19.24;54.89
82416;BME280;72058;47.782;10.618;2023-09-19T10:37:02;93566.09;;;19.19;55.13
82416;BME280;72058;47.782;10.618;2023-09-19T10:39:32;93575.53;;;19.18;54.76
82416;BME280;72058;47.782;10.618;2023-09-19T10:42:01;93578.72;;;19.20;54.98
82416;BME280;72058;47.782;10.618;2023-09-19T10:44:32;93567.91;;;19.08;54.82
82416;BME280;72058;47.782;10.618;2023-09-19T10:46:58;93570.72;;;19.11;55.00
82416;BME280;72058;47.782;10.618;2023-09-19T10:49:24;93575.38;;;19.07;55.16
82416;BME280;72058;47.782;10.618;2023-09-19T10:51:53;93584.75;;;19.03;55.29
82416;BME280;72058;47.782;10.618;2023-09-19T10:54:22;93578.44;;;19.02;55.21
82416;BME280;72058;47.782;10.618;2023-09-19T10:56:52;93579.50;;;18.94;55.06
82416;BME280;72058;47.782;10.618;2023-09-19T10:59:19;93583.78;;;18.91;55.22
82416;BME280;72058;47.782;10.618;2023-09-19T11:01:56;93585.25;;;18.85;55.72
82416;BME280;72058;47.782;10.618;2023-09-19T11:15:07;93579.88;;;18.92;56.62
82416;BME280;72058;47.782;10.618;2023-09-19T11:17:42;93572.38;;;18.93;56.06
82416;BME280;72058;47.782;10.618;2023-09-19T11:30:32;93575.50;;;19.14;55.70
82416;BME280;72058;47.782;10.618;2023-09-19T11:36:07;93560.22;;;19.20;56.59
82416;BME280;72058;47.782;10.618;2023-09-19T11:47:01;93570.00;;;19.44;55.64
82416;BME280;72058;47.782;10.618;2023-09-19T11:49:29;93561.13;;;19.54;56.13
82416;BME280;72058;47.782;10.618;2023-09-19T11:51:58;93570.28;;;19.62;54.94
82416;BME280;72058;47.782;10.618;2023-09-19T11:54:27;93563.59;;;19.63;54.52
82416;BME280;72058;47.782;10.618;2023-09-19T11:56:58;93562.44;;;19.64;54.07
82416;BME280;72058;47.782;10.618;2023-09-19T11:59:26;93562.44;;;19.64;54.15
82416;BME280;72058;47.782;10.618;2023-09-19T12:01:58;93566.25;;;19.56;54.98
82416;BME280;72058;47.782;10.618;2023-09-19T12:07:08;93557.97;;;19.56;55.43
82416;BME280;72058;47.782;10.618;2023-09-19T12:09:41;93561.94;;;19.58;55.49
82416;BME280;72058;47.782;10.618;2023-09-19T12:12:10;93558.69;;;19.49;55.85
82416;BME280;72058;47.782;10.618;2023-09-19T12:14:38;93559.41;;;19.46;55.11
82416;BME280;72058;47.782;10.618;2023-09-19T12:17:06;93559.41;;;19.46;54.89
82416;BME280;72058;47.782;10.618;2023-09-19T12:19:31;93557.81;;;19.45;54.76
82416;BME280;72058;47.782;10.618;2023-09-19T12:22:01;93554.72;;;19.50;54.72
82416;BME280;72058;47.782;10.618;2023-09-19T12:24:31;93560.75;;;19.56;54.55
82416;BME280;72058;47.782;10.618;2023-09-19T12:27:00;93558.81;;;19.60;54.49
82416;BME280;72058;47.782;10.618;2023-09-19T12:29:29;93558.81;;;19.60;54.91
82416;BME280;72058;47.782;10.618;2023-09-19T12:31:59;93553.38;;;19.67;54.21
82416;BME280;72058;47.782;10.618;2023-09-19T12:34:34;93548.25;;;19.65;54.10
82416;BME280;72058;47.782;10.618;2023-09-19T12:39:49;93548.13;;;19.55;53.84
82416;BME280;72058;47.782;10.618;2023-09-19T12:42:26;93545.00;;;19.60;53.81
82416;BME280;72058;47.782;10.618;2023-09-19T12:44:58;93540.66;;;19.59;53.59
82416;BME280;72058;47.782;10.618;2023-09-19T12:47:27;93538.25;;;19.54;53.54
82416;BME280;72058;47.782;10.618;2023-09-19T12:52:49;93543.81;;;19.57;53.54
82416;BME280;72058;47.782;10.618;2023-09-19T12:55:28;93546.66;;;19.64;52.81
82416;BME280;72058;47.782;10.618;2023-09-19T12:58:13;93550.88;;;19.55;53.29
82416;BME280;72058;47.782;10.618;2023-09-19T13:00:41;93542.25;;;19.60;53.13
82416;BME280;72058;47.782;10.618;2023-09-19T13:05:59;93531.97;;;19.57;54.25
82416;BME280;72058;47.782;10.618;2023-09-19T13:11:16;93522.69;;;19.72;53.96
82416;BME280;72058;47.782;10.618;2023-09-19T13:19:38;93522.78;;;19.79;53.02
82416;BME280;72058;47.782;10.618;2023-09-19T13:24:49;93516.41;;;19.75;53.24
82416;BME280;72058;47.782;10.618;2023-09-19T13:27:16;93515.66;;;19.78;53.29
82416;BME280;72058;47.782;10.618;2023-09-19T13:29:41;93504.03;;;19.95;52.24
82416;BME280;72058;47.782;10.618;2023-09-19T13:32:10;93515.06;;;19.95;52.49
82416;BME280;72058;47.782;10.618;2023-09-19T13:34:36;93514.34;;;20.02;51.63
82416;BME280;72058;47.782;10.618;2023-09-19T13:37:03;93495.81;;;19.99;51.70
82416;BME280;72058;47.782;10.618;2023-09-19T13:39:29;93497.84;;;20.05;51.91
82416;BME280;72058;47.782;10.618;2023-09-19T13:41:55;93503.78;;;20.07;51.88
82416;BME280;72058;47.782;10.618;2023-09-19T13:44:20;93499.50;;;20.14;50.27
82416;BME280;72058;47.782;10.618;2023-09-19T13:46:45;93495.19;;;20.16;50.11
82416;BME280;72058;47.782;10.618;2023-09-19T13:49:11;93502.63;;;20.12;49.95
82416;BME280;72058;47.782;10.618;2023-09-19T13:51:37;93488.03;;;20.12;49.65
82416;BME280;72058;47.782;10.618;2023-09-19T13:54:02;93491.22;;;20.14;49.95
82416;BME280;72058;47.782;10.618;2023-09-19T13:56:28;93490.41;;;20.13;49.34
82416;BME280;72058;47.782;10.618;2023-09-19T13:58:54;93487.66;;;20.13;49.07
82416;BME280;72058;47.782;10.618;2023-09-19T14:01:19;93487.28;;;20.15;49.71
82416;BME280;72058;47.782;10.618;2023-09-19T14:03:45;93481.31;;;20.13;49.29
82416;BME280;72058;47.782;10.618;2023-09-19T14:06:14;93471.50;;;20.15;49.33
82416;BME280;72058;47.782;10.618;2023-09-19T14:08:40;93471.81;;;20.10;49.86
82416;BME280;72058;47.782;10.618;2023-09-19T14:11:06;93473.84;;;20.13;50.14
82416;BME280;72058;47.782;10.618;2023-09-19T14:13:32;93482.47;;;20.08;50.31
82416;BME280;72058;47.782;10.618;2023-09-19T14:15:57;93473.78;;;20.09;50.87
82416;BME280;72058;47.782;10.618;2023-09-19T14:18:23;93470.22;;;20.09;51.20
82416;BME280;72058;47.782;10.618;2023-09-19T14:20:49;93464.72;;;20.09;51.23